Time,TemperatureF,DewpointF,PressureIn,WindDirection,WindDirectionDegrees,WindSpeedMPH,WindSpeedGustMPH,Humidity,HourlyPrecipIn,Conditions,Clouds,dailyrainin,SoftwareType,DateUTC
2014-09-19 00:27:00,47.1,46.8,30.07,East,90,6.0,7.0,99,0.00,,---,0.00,VWS V15.00,2014-09-19 05:27:00,
2014-09-19 00:57:00,47.1,46.8,30.08,ESE,111,2.0,6.0,99,0.00,,---,0.00,VWS V15.00,2014-09-19 05:57:00,
2014-09-19 01:27:00,46.5,46.2,30.06,SSE,161,2.0,4.0,99,0.00,,---,0.00,VWS V15.00,2014-09-19 06:27:00,
2014-09-19 01:57:00,47.1,47.1,30.07,ESE,122,1.0,5.0,100,0.00,,---,0.00,VWS V15.00,2014-09-19 06:57:00,
2014-09-19 02:27:00,48.0,48.0,30.07,East,98,4.0,11.0,100,0.00,,---,0.00,VWS V15.00,2014-09-19 07:27:00,
2014-09-19 02:57:00,48.6,48.6,30.05,ESE,110,4.0,7.0,100,0.00,,---,0.00,VWS V15.00,2014-09-19 07:57:00,
2014-09-19 03:27:00,49.2,49.2,30.03,SE,140,3.0,11.0,100,0.00,,---,0.00,VWS V15.00,2014-09-19 08:27:00,
2014-09-19 03:57:00,49.9,49.9,30.03,ESE,104,2.0,6.0,100,0.00,,---,0.00,VWS V15.00,2014-09-19 08:57:00,
2014-09-19 04:27:00,50.4,50.4,30.02,ESE,117,3.0,6.0,100,0.00,,---,0.00,VWS V15.00,2014-09-19 09:27:00,
2014-09-19 04:57:00,50.7,50.7,30.03,East,90,1.0,7.0,100,0.00,,---,0.00,VWS V15.00,2014-09-19 09:57:00,
2014-09-19 05:27:00,50.5,50.5,30.02,ESE,107,1.0,7.0,100,0.00,,---,0.00,VWS V15.00,2014-09-19 10:27:00,
2014-09-19 05:57:00,49.6,49.6,30.02,SE,128,0.0,6.0,100,0.00,,---,0.00,VWS V15.00,2014-09-19 10:57:00,
2014-09-19 06:27:00,49.4,49.4,30.02,SE,132,2.0,6.0,100,0.00,,---,0.00,VWS V15.00,2014-09-19 11:27:00,
2014-09-19 06:57:00,49.5,49.5,30.02,ESE,102,7.0,7.0,100,0.00,,---,0.00,VWS V15.00,2014-09-19 11:57:00,
2014-09-19 07:27:00,49.6,49.6,30.03,SE,133,1.0,7.0,100,0.00,,---,0.00,VWS V15.00,2014-09-19 12:27:00,
2014-09-19 07:57:00,49.9,49.9,30.02,East,89,5.0,7.0,100,0.00,,---,0.00,VWS V15.00,2014-09-19 12:57:00,
2014-09-19 08:27:00,50.2,50.2,30.01,ENE,78,4.0,13.0,100,0.00,,---,0.00,VWS V15.00,2014-09-19 13:27:00,
2014-09-19 08:57:00,51.9,51.6,29.99,ESE,109,4.0,13.0,99,0.00,,---,0.00,VWS V15.00,2014-09-19 13:57:00,
2014-09-19 09:27:00,53.3,51.0,29.98,ESE,103,5.0,13.0,92,0.00,,---,0.00,VWS V15.00,2014-09-19 14:27:00,
2014-09-19 09:57:00,55.3,51.2,29.96,ESE,105,3.0,13.0,86,0.00,,---,0.00,VWS V15.00,2014-09-19 14:57:00,
2014-09-19 10:27:00,58.0,50.8,29.95,ENE,77,4.0,17.0,77,0.00,,---,0.00,VWS V15.00,2014-09-19 15:27:00,
2014-09-19 10:57:00,58.9,51.4,29.93,East,92,5.0,13.0,76,0.00,,---,0.00,VWS V15.00,2014-09-19 15:57:00,
2014-09-19 11:27:00,59.6,50.6,29.92,South,188,4.0,11.0,72,0.00,,---,0.00,VWS V15.00,2014-09-19 16:27:00,
2014-09-19 11:57:00,62.0,52.1,29.89,SSE,154,7.0,11.0,70,0.00,,---,0.00,VWS V15.00,2014-09-19 16:57:00,
2014-09-19 12:27:00,62.3,51.6,29.87,ESE,121,5.0,15.0,68,0.00,,---,0.00,VWS V15.00,2014-09-19 17:27:00,
2014-09-19 12:57:00,64.2,53.0,29.85,East,89,9.0,16.0,67,0.00,,---,0.00,VWS V15.00,2014-09-19 17:57:00,
2014-09-19 13:27:00,65.6,53.1,29.82,ENE,77,6.0,17.0,64,0.00,,---,0.00,VWS V15.00,2014-09-19 18:27:00,
2014-09-19 13:57:00,65.2,52.7,29.79,East,99,3.0,21.0,64,0.00,,---,0.00,VWS V15.00,2014-09-19 18:57:00,
2014-09-19 14:27:00,66.4,53.9,29.79,SSW,196,11.0,20.0,64,0.00,,---,0.00,VWS V15.00,2014-09-19 19:27:00,
2014-09-19 14:57:00,67.9,54.4,29.76,SE,128,6.0,19.0,62,0.00,,---,0.00,VWS V15.00,2014-09-19 19:57:00,
2014-09-19 15:27:00,68.4,55.3,29.73,ESE,113,5.0,16.0,63,0.00,,---,0.00,VWS V15.00,2014-09-19 20:27:00,
2014-09-19 15:57:00,67.4,54.4,29.71,SE,139,7.0,19.0,63,0.00,,---,0.00,VWS V15.00,2014-09-19 20:57:00,
2014-09-19 16:27:00,67.1,55.0,29.69,South,181,5.0,15.0,65,0.00,,---,0.00,VWS V15.00,2014-09-19 21:27:00,
2014-09-19 16:57:00,66.6,55.3,29.69,ENE,63,5.0,17.0,67,0.00,,---,0.00,VWS V15.00,2014-09-19 21:57:00,